Time;durP1;ratioP1;P1;durP2;ratioP2;P2;SDS_P1;SDS_P2;PMS_P1;PMS_P2;Temp;Humidity;BMP_temperature;BMP_pressure;BME280_temperature;BME280_humidity;BME280_pressure;Samples;Min_cycle;Max_cycle;Signal;HPM_P1;HPM_P2
2023/03/16 00:01:42;;;;;;;3.97;2.63;;;;;;;17.44;40.13;101844.31;5022362;28;20053;-24
2023/03/16 00:04:09;;;;;;;4.82;2.28;;;;;;;17.42;39.84;101830.19;5020533;28;20049;-24
2023/03/16 00:06:35;;;;;;;4.10;2.45;;;;;;;17.41;39.10;101823.16;5020999;28;20140;-25
2023/03/16 00:09:03;;;;;;;3.80;2.40;;;;;;;17.40;39.77;101824.09;5021283;28;20048;-25
2023/03/16 00:11:29;;;;;;;5.28;2.55;;;;;;;17.40;39.26;101832.13;5022183;28;20088;-24
2023/03/16 00:13:57;;;;;;;3.40;2.40;;;;;;;17.38;39.43;101823.38;5021590;28;20053;-25
2023/03/16 00:16:24;;;;;;;4.15;2.03;;;;;;;17.37;39.12;101819.00;5020580;28;20057;-24
2023/03/16 00:18:50;;;;;;;5.10;2.25;;;;;;;17.35;40.10;101813.75;5021067;28;20127;-24
2023/03/16 00:21:17;;;;;;;3.58;2.08;;;;;;;17.35;39.65;101803.03;5021362;28;20057;-25
2023/03/16 00:23:43;;;;;;;3.40;2.05;;;;;;;17.35;39.79;101803.03;5023082;28;20054;-24
2023/03/16 00:26:11;;;;;;;4.10;2.72;;;;;;;17.35;39.68;101804.88;5020919;28;20056;-25
2023/03/16 00:28:38;;;;;;;3.65;2.47;;;;;;;17.34;39.71;101804.03;5023236;28;20053;-24
2023/03/16 00:31:07;;;;;;;3.20;1.98;;;;;;;17.33;39.48;101799.66;5022294;28;20073;-25
2023/03/16 00:33:36;;;;;;;3.35;2.22;;;;;;;17.33;39.18;101794.28;5019121;28;20086;-25
2023/03/16 00:36:08;;;;;;;5.13;2.47;;;;;;;17.33;39.50;101796.13;5027847;28;20045;-24
2023/03/16 00:38:43;;;;;;;4.57;2.35;;;;;;;17.32;39.50;101797.94;5025781;28;20107;-23
2023/03/16 00:41:13;;;;;;;3.97;2.05;;;;;;;17.31;39.54;101792.72;5020096;28;20045;-23
2023/03/16 00:43:41;;;;;;;3.78;2.00;;;;;;;17.28;39.90;101788.44;5026105;28;20342;-24
2023/03/16 00:46:10;;;;;;;3.53;1.95;;;;;;;17.29;39.04;101795.53;5021632;28;20046;-24
2023/03/16 00:48:41;;;;;;;3.60;2.15;;;;;;;17.27;39.93;101786.75;5023528;28;20045;-23
2023/03/16 00:51:11;;;;;;;3.83;1.90;;;;;;;17.26;39.62;101783.22;5023596;28;20061;-24
2023/03/16 00:53:40;;;;;;;3.10;2.00;;;;;;;17.25;39.29;101778.84;5026933;28;20495;-23
2023/03/16 00:56:07;;;;;;;3.97;2.20;;;;;;;17.23;39.63;101777.25;5025057;28;20060;-25
2023/03/16 00:58:38;;;;;;;3.53;2.05;;;;;;;17.22;39.70;101764.84;5036231;28;20045;-24
2023/03/16 01:01:10;;;;;;;3.35;1.98;;;;;;;17.21;39.53;101766.69;5022282;28;20053;-24
2023/03/16 01:03:37;;;;;;;2.85;1.80;;;;;;;17.21;39.13;101764.00;5023896;28;20071;-24
2023/03/16 01:06:06;;;;;;;3.83;1.90;;;;;;;17.21;39.02;101755.97;5021035;28;20050;-24
2023/03/16 01:08:32;;;;;;;4.68;1.90;;;;;;;17.21;39.12;101757.78;5020782;28;20038;-25
2023/03/16 01:11:09;;;;;;;2.78;1.83;;;;;;;17.18;39.40;101758.03;5023685;28;20060;-24
2023/03/16 01:13:37;;;;;;;3.05;2.05;;;;;;;17.18;39.21;101750.84;5027088;28;20053;-23
2023/03/16 01:16:04;;;;;;;4.60;2.15;;;;;;;17.17;39.64;101759.88;5024927;28;20051;-23
2023/03/16 01:18:34;;;;;;;2.78;2.08;;;;;;;17.17;40.00;101753.66;5023655;28;20137;-24
2023/03/16 01:21:02;;;;;;;4.68;1.98;;;;;;;17.15;39.58;101740.38;5024433;28;20087;-22
2023/03/16 01:23:30;;;;;;;4.63;1.95;;;;;;;17.13;39.87;101745.03;5026610;28;20350;-23
2023/03/16 01:25:57;;;;;;;4.82;2.13;;;;;;;17.13;39.33;101744.19;5025389;28;20057;-25
2023/03/16 01:28:27;;;;;;;4.00;2.28;;;;;;;17.11;39.74;101741.59;5026137;28;20161;-25
2023/03/16 01:30:57;;;;;;;2.95;1.90;;;;;;;17.11;39.83;101736.25;5025927;28;20418;-23
2023/03/16 01:33:25;;;;;;;3.15;1.90;;;;;;;17.09;39.18;101732.00;5028280;28;20054;-24
2023/03/16 01:35:56;;;;;;;3.70;1.83;;;;;;;17.09;39.83;101729.34;5024845;28;20060;-24
2023/03/16 01:38:23;;;;;;;2.53;1.85;;;;;;;17.07;39.57;101729.44;5025220;28;20053;-23
2023/03/16 01:40:51;;;;;;;3.40;2.15;;;;;;;17.07;39.88;101721.41;5025399;28;20441;-24
2023/03/16 01:43:19;;;;;;;3.38;2.25;;;;;;;17.07;39.45;101709.84;5026061;28;20054;-24
2023/03/16 01:46:04;;;;;;;3.47;1.92;;;;;;;17.04;39.11;101700.22;5031631;28;20046;-24
2023/03/16 01:48:36;;;;;;;4.15;2.08;;;;;;;17.06;40.06;101708.16;5027267;28;20100;-24
2023/03/16 01:51:10;;;;;;;3.38;2.20;;;;;;;17.02;39.63;101697.69;5024052;28;20058;-24
2023/03/16 01:53:39;;;;;;;;;;;;;;;17.00;38.74;101694.28;5025115;28;20054;-25
2023/03/16 01:56:12;;;;;;;4.07;2.22;;;;;;;17.03;39.03;101685.13;5030486;28;19925;-24
2023/03/16 01:58:41;;;;;;;4.10;2.05;;;;;;;17.02;39.11;101683.44;5023004;28;20571;-25
2023/03/16 02:01:09;;;;;;;3.30;2.25;;;;;;;17.01;39.16;101689.78;5023243;28;20077;-24
2023/03/16 02:03:36;;;;;;;3.15;2.05;;;;;;;17.00;39.36;101682.69;5024577;28;20057;-24
2023/03/16 02:06:11;;;;;;;2.80;1.83;;;;;;;16.97;39.22;101680.31;5029137;28;20049;-24
2023/03/16 02:08:39;;;;;;;3.85;1.83;;;;;;;16.95;39.46;101675.06;5028800;28;20076;-24
2023/03/16 02:11:08;;;;;;;2.92;2.08;;;;;;;16.95;39.45;101675.06;5029725;28;20051;-25
2023/03/16 02:13:35;;;;;;;7.00;2.20;;;;;;;16.94;39.51;101670.69;5026210;28;20060;-24
2023/03/16 02:16:05;;;;;;;4.13;1.95;;;;;;;16.94;38.92;101675.19;5027191;28;20052;-23
2023/03/16 02:18:32;;;;;;;2.22;1.80;;;;;;;16.93;39.29;101665.47;5025634;28;20049;-25
2023/03/16 02:21:19;;;;;;;3.05;1.80;;;;;;;16.91;40.11;101665.56;5026472;28;20049;-24
2023/03/16 02:23:47;;;;;;;3.55;2.28;;;;;;;16.92;39.47;101672.63;5024711;28;20053;-23
2023/03/16 02:26:25;;;;;;;5.35;2.30;;;;;;;16.91;39.34;101662.03;5027456;28;20064;-23
2023/03/16 02:29:15;;;;;;;3.53;2.20;;;;;;;16.90;39.57;101665.72;5025614;28;20052;-23
2023/03/16 02:31:43;;;;;;;4.20;2.00;;;;;;;16.90;39.67;101658.53;5023225;28;20052;-24
2023/03/16 02:34:12;;;;;;;3.78;2.15;;;;;;;16.89;39.96;101662.19;5026535;28;20339;-25
2023/03/16 02:36:41;;;;;;;2.78;2.00;;;;;;;16.90;39.79;101663.88;5026679;28;20045;-23
2023/03/16 02:39:07;;;;;;;3.72;1.85;;;;;;;16.89;39.96;101656.84;5025866;28;20055;-24
2023/03/16 02:41:34;;;;;;;4.18;1.90;;;;;;;16.87;39.86;101656.09;5022523;28;20083;-24
2023/03/16 02:44:09;;;;;;;5.25;2.30;;;;;;;16.88;39.36;101662.28;5023839;28;20042;-25
2023/03/16 02:46:37;;;;;;;2.63;1.73;;;;;;;16.88;39.88;101652.44;5025649;28;20061;-25
2023/03/16 02:49:11;;;;;;;2.88;1.80;;;;;;;16.87;40.17;101663.28;5025306;28;20052;-25
2023/03/16 02:51:37;;;;;;;3.45;1.92;;;;;;;16.87;39.37;101663.28;5024090;28;20462;-25
2023/03/16 02:54:04;;;;;;;5.28;1.95;;;;;;;16.85;39.27;101657.22;5025343;28;20136;-24
2023/03/16 02:56:30;;;;;;;3.00;1.92;;;;;;;16.84;40.19;101660.84;5028120;28;20055;-24
2023/03/16 02:58:57;;;;;;;6.70;2.33;;;;;;;16.83;39.94;101653.78;5026883;28;20039;-25
2023/03/16 03:01:24;;;;;;;3.13;1.92;;;;;;;16.83;39.89;101662.66;5024438;28;20045;-24
2023/03/16 03:03:50;;;;;;;5.35;2.00;;;;;;;16.81;39.89;101659.28;5021024;28;20042;-24
2023/03/16 03:06:17;;;;;;;4.53;1.98;;;;;;;16.82;39.57;101654.78;5025361;28;20058;-26
2023/03/16 03:08:44;;;;;;;5.25;2.00;;;;;;;16.82;39.49;101654.78;5025982;28;20053;-24
2023/03/16 03:11:10;;;;;;;3.80;1.90;;;;;;;16.81;39.76;101653.09;5025089;28;20057;-23
2023/03/16 03:13:38;;;;;;;3.35;1.77;;;;;;;16.80;39.95;101651.34;5024516;28;20085;-23
2023/03/16 03:16:04;;;;;;;2.88;1.67;;;;;;;16.78;39.97;101655.03;5020711;28;20132;-24
2023/03/16 03:18:33;;;;;;;2.50;1.83;;;;;;;16.77;39.34;101647.13;5023891;28;20053;-24
2023/03/16 03:21:00;;;;;;;4.93;2.25;;;;;;;16.78;40.21;101648.81;5020022;28;20049;-23
2023/03/16 03:23:26;;;;;;;4.97;1.80;;;;;;;16.76;39.53;101642.72;5027150;28;20413;-26
2023/03/16 03:25:57;;;;;;;5.30;2.05;;;;;;;16.74;40.15;101642.03;5025834;28;20046;-27
2023/03/16 03:28:24;;;;;;;3.75;2.20;;;;;;;16.72;39.63;101642.13;5026946;28;20065;-26
2023/03/16 03:30:51;;;;;;;2.40;1.83;;;;;;;16.72;40.32;101639.44;5022912;28;20061;-24
2023/03/16 03:33:18;;;;;;;3.60;2.13;;;;;;;16.71;39.64;101637.72;5026840;28;20060;-27
2023/03/16 03:35:44;;;;;;;3.63;2.13;;;;;;;16.71;39.27;101634.19;5027549;28;20541;-26
2023/03/16 03:38:11;;;;;;;3.10;1.83;;;;;;;16.69;39.84;101623.63;5022670;28;20116;-25
2023/03/16 03:40:38;;;;;;;3.65;1.55;;;;;;;16.69;40.13;101622.78;5020712;28;20045;-26
2023/03/16 03:43:05;;;;;;;3.17;1.80;;;;;;;16.67;39.72;101622.03;5025364;28;20500;-27
2023/03/16 03:45:31;;;;;;;3.97;1.73;;;;;;;16.68;39.86;101626.41;5026752;28;20050;-27
2023/03/16 03:47:58;;;;;;;4.63;1.95;;;;;;;16.67;39.45;101624.72;5026175;28;20045;-26
2023/03/16 03:50:25;;;;;;;4.03;2.05;;;;;;;16.67;40.00;101624.72;5023989;28;20446;-26
2023/03/16 03:52:52;;;;;;;3.97;1.63;;;;;;;16.67;40.43;101624.72;5022965;28;20106;-26
2023/03/16 03:55:18;;;;;;;3.60;1.90;;;;;;;16.66;40.58;101609.66;5023697;28;20064;-27
2023/03/16 03:57:45;;;;;;;3.08;1.77;;;;;;;16.65;39.94;101611.47;5026205;28;20136;-26
2023/03/16 04:00:12;;;;;;;3.05;1.90;;;;;;;16.63;39.74;101605.38;5021951;28;20448;-26
2023/03/16 04:02:39;;;;;;;3.10;1.85;;;;;;;16.62;40.49;101606.38;5026571;28;20050;-25
2023/03/16 04:05:07;;;;;;;4.10;1.85;;;;;;;16.63;40.01;101600.03;5022872;28;20077;-26
2023/03/16 04:07:33;;;;;;;2.92;1.98;;;;;;;16.62;39.69;101590.31;5021070;28;20054;-25
2023/03/16 04:10:00;;;;;;;2.40;1.50;;;;;;;16.62;40.44;101586.78;5026087;28;20380;-25
2023/03/16 04:12:26;;;;;;;4.55;1.70;;;;;;;16.62;40.47;101592.13;5023191;28;20124;-28
2023/03/16 04:14:53;;;;;;;3.55;2.25;;;;;;;16.61;40.10;101580.59;5017650;28;20254;-25
2023/03/16 04:17:20;;;;;;;2.70;1.55;;;;;;;16.60;40.92;101586.03;5022487;28;20433;-26
2023/03/16 04:19:47;;;;;;;3.72;1.90;;;;;;;16.59;40.62;101585.19;5018904;28;20133;-26
2023/03/16 04:22:13;;;;;;;2.75;1.60;;;;;;;16.59;40.49;101584.34;5021943;28;20063;-26
2023/03/16 04:24:42;;;;;;;3.47;1.80;;;;;;;16.59;40.21;101579.00;5016288;28;20440;-27
2023/03/16 04:27:10;;;;;;;3.45;1.80;;;;;;;16.57;40.46;101571.09;5025468;28;20180;-24
2023/03/16 04:29:37;;;;;;;3.38;1.70;;;;;;;16.56;39.93;101574.75;5023117;28;20046;-25
2023/03/16 04:32:05;;;;;;;3.08;2.00;;;;;;;16.55;39.99;101573.03;5022976;28;20204;-25
2023/03/16 04:34:33;;;;;;;3.47;1.80;;;;;;;16.53;40.88;101565.16;5022963;28;20045;-25
2023/03/16 04:37:01;;;;;;;3.25;1.80;;;;;;;16.53;40.06;101565.16;5020728;28;20085;-25
2023/03/16 04:39:27;;;;;;;7.78;1.80;;;;;;;16.54;40.77;101571.34;5021338;28;20046;-26
2023/03/16 04:41:54;;;;;;;2.92;1.80;;;;;;;16.53;40.59;101569.66;5019014;28;20057;-26
2023/03/16 04:44:20;;;;;;;3.42;1.70;;;;;;;16.53;40.27;101566.97;5022616;28;20045;-25
2023/03/16 04:46:47;;;;;;;3.70;2.00;;;;;;;16.52;40.22;101562.59;5020144;28;20133;-26
2023/03/16 04:49:13;;;;;;;2.08;1.65;;;;;;;16.51;41.05;101560.91;5026422;28;20061;-26
2023/03/16 04:51:41;;;;;;;2.63;1.80;;;;;;;16.50;41.10;101553.84;5022502;28;20061;-25
2023/03/16 04:54:08;;;;;;;4.00;2.15;;;;;;;16.50;40.80;101553.84;5022515;28;20053;-26
2023/03/16 04:56:34;;;;;;;7.40;1.85;;;;;;;16.49;40.67;101549.47;5023560;28;20053;-26
2023/03/16 04:59:01;;;;;;;2.88;1.65;;;;;;;16.47;40.52;101554.94;5019939;28;20052;-24
2023/03/16 05:01:28;;;;;;;2.17;1.63;;;;;;;16.46;40.94;101565.78;5023335;28;20138;-26
2023/03/16 05:03:54;;;;;;;4.85;1.92;;;;;;;16.46;40.01;101560.44;5025940;28;20477;-23
2023/03/16 05:06:23;;;;;;;2.55;1.50;;;;;;;16.44;40.18;101563.25;5023843;28;20058;-26
2023/03/16 05:08:50;;;;;;;3.53;1.60;;;;;;;16.43;39.88;101569.56;5025043;28;20453;-25
2023/03/16 05:11:16;;;;;;;4.15;1.50;;;;;;;16.43;39.94;101566.03;5026458;28;20053;-25
2023/03/16 05:13:43;;;;;;;2.00;1.38;;;;;;;16.42;40.68;101570.53;5025801;28;20128;-25
2023/03/16 05:16:10;;;;;;;3.92;1.75;;;;;;;16.42;40.81;101578.56;5020899;28;20056;-25
2023/03/16 05:18:36;;;;;;;2.67;1.45;;;;;;;16.42;39.95;101569.69;5028396;28;20080;-25
2023/03/16 05:21:03;;;;;;;2.35;1.67;;;;;;;16.41;39.96;101563.50;5027573;28;20289;-26
2023/03/16 05:23:30;;;;;;;4.20;1.92;;;;;;;16.41;40.78;101558.13;5025741;28;20077;-26
2023/03/16 05:25:59;;;;;;;6.95;1.95;;;;;;;16.40;41.09;101560.91;5023593;28;20432;-25
2023/03/16 05:28:26;;;;;;;4.25;1.77;;;;;;;16.40;40.16;101560.91;5026138;28;20058;-25
2023/03/16 05:30:53;;;;;;;2.72;1.50;;;;;;;16.37;40.89;101562.03;5024398;28;20053;-25
2023/03/16 05:33:20;;;;;;;3.08;1.50;;;;;;;16.39;41.08;101560.06;5024541;28;20054;-25
2023/03/16 05:35:47;;;;;;;3.08;1.73;;;;;;;16.38;40.23;101549.50;5025029;28;20049;-26
2023/03/16 05:38:14;;;;;;;5.05;2.10;;;;;;;16.37;40.11;101546.00;5021046;28;20396;-26
2023/03/16 05:40:41;;;;;;;4.10;1.50;;;;;;;16.37;41.26;101550.50;5022619;28;20520;-25
2023/03/16 05:43:07;;;;;;;3.60;1.83;;;;;;;16.37;41.09;101550.50;5020751;28;20128;-26
2023/03/16 05:45:34;;;;;;;3.92;1.90;;;;;;;16.36;41.43;101541.63;5023073;28;20136;-26
2023/03/16 05:48:00;;;;;;;2.95;1.65;;;;;;;16.35;40.55;101539.91;5024121;28;20042;-25
2023/03/16 05:50:27;;;;;;;4.35;1.80;;;;;;;16.35;40.14;101539.06;5020265;28;20434;-25
2023/03/16 05:52:54;;;;;;;2.67;1.60;;;;;;;16.34;40.56;101532.00;5020509;28;20073;-27
2023/03/16 05:55:21;;;;;;;2.42;1.58;;;;;;;16.33;41.49;101533.84;5019607;28;20049;-25
2023/03/16 05:57:47;;;;;;;4.50;1.63;;;;;;;16.34;40.60;101532.00;5018533;28;20054;-26
2023/03/16 06:00:15;;;;;;;3.67;1.77;;;;;;;16.32;40.98;101532.13;5026015;28;20057;-26
2023/03/16 06:02:45;;;;;;;3.75;1.75;;;;;;;16.30;40.35;101531.41;5025960;28;20045;-25
2023/03/16 06:05:13;;;;;;;5.07;1.80;;;;;;;16.30;40.49;101528.72;5026166;28;20054;-25
2023/03/16 06:07:40;;;;;;;3.15;1.88;;;;;;;16.29;40.88;101527.88;5021478;28;20497;-26
2023/03/16 06:10:08;;;;;;;5.10;2.10;;;;;;;16.27;40.40;101519.13;5028626;28;20416;-26
2023/03/16 06:12:34;;;;;;;2.90;1.75;;;;;;;16.28;40.59;101522.63;5028298;28;20045;-27
2023/03/16 06:15:01;;;;;;;4.85;1.85;;;;;;;16.27;40.89;101532.50;5028233;28;20045;-27
2023/03/16 06:17:28;;;;;;;3.15;1.70;;;;;;;16.26;41.31;101528.13;5031075;28;20128;-26
2023/03/16 06:19:55;;;;;;;2.55;1.35;;;;;;;16.25;40.96;101521.09;5027225;28;20045;-27
2023/03/16 06:22:22;;;;;;;4.88;1.60;;;;;;;16.25;41.42;101520.25;5030215;28;20049;-25
2023/03/16 06:24:50;;;;;;;5.38;1.75;;;;;;;16.25;40.49;101513.06;5029341;28;20056;-26
2023/03/16 06:27:19;;;;;;;3.70;1.52;;;;;;;16.25;40.98;101512.22;5028680;28;20060;-26
2023/03/16 06:29:46;;;;;;;2.83;1.50;;;;;;;16.24;41.19;101519.41;5024509;28;20076;-24
2023/03/16 06:32:13;;;;;;;4.13;1.55;;;;;;;16.23;41.17;101516.81;5028566;28;20056;-27
2023/03/16 06:34:40;;;;;;;4.70;1.80;;;;;;;16.28;40.58;101506.59;5029171;28;20459;-23
2023/03/16 06:37:07;;;;;;;6.88;2.00;;;;;;;16.35;40.14;101510.47;5028053;28;20053;-24
2023/03/16 06:39:33;;;;;;;4.78;1.40;;;;;;;16.41;40.87;101504.63;5021722;28;20441;-26
2023/03/16 06:42:00;;;;;;;3.15;1.40;;;;;;;16.48;40.85;101503.16;5027233;28;20436;-26
2023/03/16 06:44:26;;;;;;;2.15;1.58;;;;;;;16.57;40.63;101506.88;5024653;28;20612;-24
2023/03/16 06:46:53;;;;;;;2.30;1.63;;;;;;;16.67;40.51;101505.13;5027193;28;20075;-25
2023/03/16 06:49:20;;;;;;;3.47;1.67;;;;;;;16.77;40.45;101498.06;5025407;28;20046;-25
2023/03/16 06:51:46;;;;;;;2.50;1.77;;;;;;;16.87;39.92;101491.91;5026638;28;20059;-25
2023/03/16 06:54:13;;;;;;;1.60;1.27;;;;;;;16.95;40.31;101486.75;5026649;28;20053;-25
2023/03/16 06:56:40;;;;;;;1.58;1.35;;;;;;;17.03;39.75;101489.63;5028372;28;20080;-25
2023/03/16 06:59:07;;;;;;;3.53;1.50;;;;;;;17.10;39.89;101490.81;5024075;28;20045;-22
2023/03/16 07:01:33;;;;;;;3.70;1.45;;;;;;;17.16;40.08;101498.31;5025712;28;20448;-24
2023/03/16 07:04:02;;;;;;;4.18;1.60;;;;;;;17.21;39.29;101489.91;5031671;28;20049;-24
2023/03/16 07:06:30;;;;;;;4.13;1.55;;;;;;;17.24;39.32;101492.28;5027870;28;20049;-24
2023/03/16 07:09:00;;;;;;;3.40;1.30;;;;;;;17.24;39.51;101490.44;5024297;28;20451;-25
2023/03/16 07:11:29;;;;;;;3.38;1.58;;;;;;;17.24;39.71;101489.59;5025734;28;20053;-26
2023/03/16 07:13:57;;;;;;;2.33;1.40;;;;;;;17.23;39.33;101480.72;5026738;28;20053;-26
2023/03/16 07:16:24;;;;;;;3.20;1.40;;;;;;;17.21;39.12;101488.06;5028099;28;20060;-26
2023/03/16 07:18:51;;;;;;;2.58;1.42;;;;;;;17.19;39.83;101490.00;5023749;28;20049;-26
2023/03/16 07:21:20;;;;;;;4.18;1.98;;;;;;;17.16;39.28;101486.75;5027163;28;20069;-25
2023/03/16 07:23:47;;;;;;;2.97;1.45;;;;;;;17.12;39.32;101475.44;5025268;28;20348;-25
2023/03/16 07:26:13;;;;;;;5.50;1.55;;;;;;;17.09;39.65;101470.38;5023698;28;20072;-26
2023/03/16 07:28:40;;;;;;;3.83;1.70;;;;;;;17.07;39.21;101472.31;5025146;28;20052;-26
2023/03/16 07:31:08;;;;;;;3.92;1.50;;;;;;;17.03;39.74;101476.25;5021870;28;20426;-26
2023/03/16 07:33:36;;;;;;;3.28;1.80;;;;;;;16.99;39.17;101475.66;5025478;28;20371;-25
2023/03/16 07:36:04;;;;;;;3.45;1.70;;;;;;;16.94;39.82;101479.72;5024062;28;20056;-25
2023/03/16 07:38:32;;;;;;;3.40;1.58;;;;;;;16.89;39.68;101472.06;5024692;28;20050;-24
2023/03/16 07:40:59;;;;;;;2.53;1.45;;;;;;;16.85;40.17;101472.47;5023712;28;20091;-25
2023/03/16 07:43:26;;;;;;;2.85;1.40;;;;;;;16.78;39.68;101488.19;5021537;28;20054;-25
2023/03/16 07:45:53;;;;;;;3.63;1.60;;;;;;;16.72;40.25;101492.22;5023696;28;20395;-25
2023/03/16 07:48:20;;;;;;;3.55;1.50;;;;;;;16.68;39.90;101481.88;5026231;28;20057;-25
2023/03/16 07:50:47;;;;;;;6.32;1.80;;;;;;;16.63;39.51;101474.25;5027676;28;20172;-26
2023/03/16 07:53:14;;;;;;;4.80;1.33;;;;;;;16.58;39.94;101470.25;5028173;28;20096;-26
2023/03/16 07:55:41;;;;;;;4.22;2.00;;;;;;;16.53;40.97;101473.31;5027683;28;20053;-26
2023/03/16 07:58:09;;;;;;;3.15;1.52;;;;;;;16.47;41.05;101473.81;5027675;28;20080;-27
2023/03/16 08:00:36;;;;;;;2.83;1.52;;;;;;;16.42;40.94;101468.88;5020840;28;20362;-27
2023/03/16 08:03:03;;;;;;;5.63;1.40;;;;;;;16.38;40.89;101463.91;5025997;28;20053;-27
2023/03/16 08:05:31;;;;;;;2.83;1.55;;;;;;;16.36;40.94;101476.53;5024225;28;20053;-28
2023/03/16 08:07:58;;;;;;;3.85;1.60;;;;;;;16.34;40.26;101465.13;5023857;28;20148;-26
2023/03/16 08:10:25;;;;;;;3.72;1.67;;;;;;;16.29;40.35;101466.34;5024224;28;20432;-27
2023/03/16 08:12:52;;;;;;;4.53;1.48;;;;;;;16.28;40.27;101474.50;5023299;28;20081;-27
2023/03/16 08:15:20;;;;;;;4.28;1.45;;;;;;;16.28;40.40;101474.50;5019548;28;20042;-26
2023/03/16 08:17:46;;;;;;;4.10;1.55;;;;;;;16.22;41.09;101478.53;5021073;28;20063;-25
2023/03/16 08:20:14;;;;;;;3.63;1.27;;;;;;;16.26;40.37;101485.34;5023639;28;20042;-27
2023/03/16 08:22:44;;;;;;;8.80;1.50;;;;;;;16.23;40.49;101480.22;5023398;28;20132;-26
2023/03/16 08:25:13;;;;;;;2.45;0.98;;;;;;;16.26;40.54;101482.66;5020227;28;20683;-26
2023/03/16 08:27:41;;;;;;;3.25;1.27;;;;;;;16.32;40.97;101483.13;5023788;28;20137;-26
2023/03/16 08:30:11;;;;;;;3.65;1.63;;;;;;;16.34;40.81;101479.34;5023598;28;20099;-25
2023/03/16 08:32:39;;;;;;;2.30;1.40;;;;;;;16.36;40.25;101472.06;5021258;28;20128;-25
2023/03/16 08:35:12;;;;;;;3.20;1.42;;;;;;;16.37;40.27;101475.59;5022288;28;20423;-26
2023/03/16 08:37:40;;;;;;;4.15;1.50;;;;;;;16.40;40.13;101483.34;5025086;28;20069;-26
2023/03/16 08:40:14;;;;;;;3.40;1.20;;;;;;;16.40;40.42;101477.97;5018957;28;20055;-27
2023/03/16 08:42:41;;;;;;;4.68;1.48;;;;;;;16.41;39.89;101480.53;5026151;28;20136;-25
2023/03/16 08:45:09;;;;;;;2.90;1.20;;;;;;;16.42;39.66;101476.03;5021542;28;20168;-26
2023/03/16 08:47:39;;;;;;;2.05;1.13;;;;;;;16.44;40.09;101469.59;5023904;28;20061;-26
2023/03/16 08:50:08;;;;;;;4.30;1.30;;;;;;;16.45;40.19;101465.09;5020953;28;20053;-26
2023/03/16 08:52:39;;;;;;;5.10;1.23;;;;;;;16.48;40.58;101467.50;5022877;28;20445;-26
2023/03/16 08:55:08;;;;;;;2.53;1.50;;;;;;;16.49;40.35;101462.03;5023070;28;20409;-27
2023/03/16 08:57:36;;;;;;;4.32;1.60;;;;;;;16.49;40.04;101461.19;5023087;28;20060;-26
2023/03/16 09:00:12;;;;;;;4.38;1.25;;;;;;;16.50;40.56;101461.03;5025686;28;20072;-25
2023/03/16 09:02:40;;;;;;;3.45;1.42;;;;;;;16.51;40.21;101457.38;5021644;28;20408;-26
2023/03/16 09:05:13;;;;;;;2.78;1.13;;;;;;;16.51;40.69;101459.22;5018686;28;20068;-26
2023/03/16 09:07:41;;;;;;;3.90;1.20;;;;;;;16.52;40.61;101452.88;5023773;28;20683;-27
2023/03/16 09:10:12;;;;;;;2.33;1.10;;;;;;;16.52;39.46;101453.75;5024288;28;20132;-26
2023/03/16 09:12:39;;;;;;;3.63;1.42;;;;;;;16.52;39.69;101461.78;5022591;28;20077;-25
2023/03/16 09:15:07;;;;;;;3.30;1.23;;;;;;;16.52;40.09;101459.09;5027778;28;20064;-26
2023/03/16 09:17:35;;;;;;;3.00;1.30;;;;;;;16.53;40.60;101457.28;5022929;28;20050;-25
2023/03/16 09:20:03;;;;;;;1.58;0.90;;;;;;;16.52;40.59;101455.56;5025698;28;20099;-27
2023/03/16 09:22:44;;;;;;;3.30;1.40;;;;;;;16.52;39.62;101452.88;5025791;28;20681;-26
2023/03/16 09:25:11;;;;;;;2.85;1.10;;;;;;;16.51;39.71;101449.34;5021873;28;20053;-26
2023/03/16 09:27:38;;;;;;;1.83;1.00;;;;;;;16.53;39.76;101459.94;5021102;28;20446;-23
2023/03/16 09:30:06;;;;;;;4.22;1.33;;;;;;;16.53;39.87;101447.41;5023756;28;20056;-23
2023/03/16 09:32:33;;;;;;;2.05;1.10;;;;;;;16.53;40.36;101450.09;5025309;28;20131;-24
2023/03/16 09:35:01;;;;;;;4.38;1.27;;;;;;;16.54;40.23;101433.03;5024450;28;20045;-23
2023/03/16 09:37:27;;;;;;;2.10;1.38;;;;;;;16.56;39.89;101446.28;5026441;28;20060;-24
2023/03/16 09:40:27;;;;;;;4.38;1.02;;;;;;;16.57;39.81;101441.81;5024256;28;20060;-24
2023/03/16 09:43:14;;;;;;;3.95;1.60;;;;;;;16.61;39.39;101445.94;5027386;28;20538;-25
2023/03/16 09:45:48;;;;;;;2.45;1.33;;;;;;;16.66;39.48;101441.03;5023075;28;20132;-25
2023/03/16 09:48:16;;;;;;;5.80;1.48;;;;;;;16.71;39.34;101449.50;5024380;28;20065;-23
2023/03/16 09:50:43;;;;;;;4.45;1.40;;;;;;;16.76;39.01;101434.81;5027295;28;20065;-23
2023/03/16 09:53:33;;;;;;;5.13;1.50;;;;;;;16.82;39.89;101419.19;5028956;28;20046;-25
2023/03/16 09:56:02;;;;;;;3.55;1.48;;;;;;;16.88;39.08;101432.03;5024763;28;20441;-25
2023/03/16 09:58:31;;;;;;;3.80;1.20;;;;;;;16.94;38.97;101420.81;5026743;28;20087;-25
2023/03/16 10:01:21;;;;;;;4.70;1.45;;;;;;;17.02;38.78;101423.66;5023581;28;20042;-24
2023/03/16 10:04:00;;;;;;;3.45;1.20;;;;;;;17.11;39.05;101430.91;5028108;28;20394;-25
2023/03/16 10:06:28;;;;;;;2.38;1.50;;;;;;;17.17;39.17;101422.34;5029162;28;20057;-24
2023/03/16 10:09:23;;;;;;;5.15;1.85;;;;;;;17.22;38.33;101428.13;5026012;28;20043;-25
2023/03/16 10:11:54;;;;;;;4.30;1.27;;;;;;;17.31;38.75;101426.47;5028453;28;20052;-25
2023/03/16 10:14:26;;;;;;;4.00;1.05;;;;;;;17.38;38.93;101416.06;5025792;28;20464;-23
2023/03/16 10:17:08;;;;;;;2.92;1.50;;;;;;;17.44;39.34;101428.91;5024437;28;20125;-24
2023/03/16 10:19:38;;;;;;;4.45;1.42;;;;;;;17.51;39.22;101430.91;5024348;28;20417;-24
2023/03/16 10:22:13;;;;;;;2.78;1.00;;;;;;;17.57;39.12;101417.94;5023727;28;20042;-25
2023/03/16 10:25:01;;;;;;;2.00;1.02;;;;;;;17.62;38.66;101405.84;5025168;28;20087;-24
2023/03/16 10:27:31;;;;;;;4.68;1.35;;;;;;;17.70;38.44;101410.53;5023602;28;20172;-26
2023/03/16 10:30:00;;;;;;;2.28;1.13;;;;;;;17.74;38.49;101407.47;5020210;28;20589;-25
2023/03/16 10:32:33;;;;;;;2.38;1.23;;;;;;;17.79;38.61;101399.00;5020579;28;20111;-25
2023/03/16 10:35:19;;;;;;;4.38;1.38;;;;;;;17.83;38.79;101400.41;5019680;28;20157;-24
2023/03/16 10:37:47;;;;;;;3.42;1.05;;;;;;;17.89;38.53;101404.38;5024999;28;20054;-24
2023/03/16 10:40:15;;;;;;;5.05;1.88;;;;;;;17.91;38.16;101394.38;5031733;28;20072;-25
2023/03/16 10:42:41;;;;;;;4.28;1.60;;;;;;;17.93;38.05;101389.69;5013288;28;20437;-25
2023/03/16 10:45:34;;;;;;;3.15;1.55;;;;;;;17.92;37.79;101391.53;5029450;28;20060;-25
2023/03/16 10:48:25;;;;;;;3.60;1.60;;;;;;;17.95;36.99;101388.56;5021550;28;20591;-25
2023/03/16 10:50:56;;;;;;;4.70;2.13;;;;;;;17.94;37.01;101386.03;5027327;28;20380;-26
2023/03/16 10:53:30;;;;;;;5.05;1.60;;;;;;;17.92;37.16;101375.44;5030414;28;20473;-24
2023/03/16 10:55:59;;;;;;;3.75;1.67;;;;;;;17.91;37.39;101371.06;5027674;28;20049;-25
2023/03/16 10:58:29;;;;;;;4.45;1.30;;;;;;;17.91;37.21;101383.63;5025159;28;20056;-25
2023/03/16 11:00:56;;;;;;;4.72;1.60;;;;;;;17.89;37.28;101364.16;5027784;28;20041;-26
2023/03/16 11:03:26;;;;;;;2.00;1.10;;;;;;;17.88;37.68;101365.97;5027842;28;20451;-24
2023/03/16 11:06:01;;;;;;;3.80;1.35;;;;;;;17.87;37.10;101374.19;5028219;28;20144;-24
2023/03/16 11:08:37;;;;;;;8.18;1.30;;;;;;;17.87;37.11;101368.81;5026224;28;20080;-23
2023/03/16 11:11:15;;;;;;;3.55;0.93;;;;;;;17.85;37.60;101358.25;5025361;28;20092;-24
2023/03/16 11:13:45;;;;;;;4.35;1.33;;;;;;;17.85;37.25;101365.41;5025396;28;20088;-25
2023/03/16 11:16:37;;;;;;;2.97;1.00;;;;;;;17.83;37.54;101357.50;5024303;28;20621;-25
2023/03/16 11:19:17;;;;;;;3.00;1.40;;;;;;;17.81;37.59;101338.06;5023256;28;20046;-26
2023/03/16 11:21:53;;;;;;;3.47;1.38;;;;;;;17.81;37.26;101331.81;5022134;28;20372;-25
2023/03/16 11:24:27;;;;;;;3.88;1.67;;;;;;;17.81;37.53;101321.09;5023489;28;20100;-26
2023/03/16 11:26:57;;;;;;;2.05;1.00;;;;;;;17.81;37.13;101342.53;5026558;28;20057;-24
2023/03/16 11:29:33;;;;;;;3.97;1.17;;;;;;;17.79;37.62;101337.34;5021380;28;20141;-25
2023/03/16 11:32:13;;;;;;;2.38;1.15;;;;;;;17.81;37.69;101339.88;5021808;28;20348;-24
2023/03/16 11:34:42;;;;;;;4.40;1.42;;;;;;;17.83;37.69;101337.91;5022670;28;20057;-25